»·PEaware :: N135GD KTUS-KROW

N135GD :: KTUS-KROW

FLIGHT INFORMATION

Flight Status: Arrived
Operator: Privately registered:
United States
More flights under this callsign
Pilot: Graham D. (41507)
Aircraft: Diamond DA-62
(DA62)
More flights by this aircraft type
Origin: KTUS Tucson Intl
United States
Destination: KROW Roswell Industrial
United States
More flights between these airports :: More routes between these airports
Route: WLDKT3 SSO V94 EWM V560 WHOLE V280 CME
File this flight plan on PilotEdge
Remarks:
Altitude:
(Current/Filed)
11,000ft
Speed:
(Current/Filed)
170kts
Departed: 29-Oct-23 01:37 PM
Arrived: 29-Oct-23 03:43 PM
Distance/Time
Traveled:
332nm/2:06
Distance/Time
To Go:
Arrived

Flight Plot

Page will automatically refresh every two minutes.

Flight plan parsing failed; only flown route is shown


Map Options




Map Legend


Flown Route
Filed Route
Departure Airport
Arrival Airport
Navaid (VOR, NDB)
Fix

Horizontal Profiles

Position Reports

Time Latitude Longitude Heading Altitude Ground
Speed
29-Oct-23 13:15 32.126945 -110.944031 135 2571ft 0kts
29-Oct-23 13:16 32.126945 -110.944031 135 2571ft 0kts
29-Oct-23 13:17 32.126945 -110.944031 135 2571ft 0kts
29-Oct-23 13:18 32.126945 -110.944031 135 2571ft 0kts
29-Oct-23 13:19 32.126945 -110.944031 135 2571ft 0kts
29-Oct-23 13:20 32.126945 -110.944031 135 2571ft 0kts
29-Oct-23 13:21 32.126945 -110.944031 135 2571ft 0kts
29-Oct-23 13:22 32.126945 -110.944031 135 2571ft 0kts
29-Oct-23 13:23 32.126945 -110.944031 135 2571ft 0kts
29-Oct-23 13:24 32.126945 -110.944031 135 2571ft 0kts
29-Oct-23 13:25 32.126945 -110.944031 135 2571ft 0kts
29-Oct-23 13:26 32.126891 -110.944941 279 2569ft 11kts
29-Oct-23 13:27 32.123856 -110.945941 135 2576ft 17kts
29-Oct-23 13:28 32.120573 -110.942097 133 2590ft 11kts
29-Oct-23 13:29 32.119404 -110.940736 135 2595ft 3kts
29-Oct-23 13:30 32.117800 -110.938806 133 2600ft 14kts
29-Oct-23 13:31 32.114812 -110.935261 136 2611ft 14kts
29-Oct-23 13:32 32.111883 -110.931823 137 2621ft 14kts
29-Oct-23 13:33 32.108850 -110.928346 134 2631ft 14kts
29-Oct-23 13:34 32.105957 -110.924923 136 2642ft 14kts
29-Oct-23 13:35 32.103092 -110.921824 199 2651ft 14kts
29-Oct-23 13:36 32.105211 -110.926593 314 2635ft 79kts
29-Oct-23 13:37 32.123656 -110.949087 316 3439ft 101kts
29-Oct-23 13:38 32.144010 -110.972836 315 4377ft 108kts
29-Oct-23 13:39 32.165749 -110.998326 314 5316ft 112kts
29-Oct-23 13:40 32.188003 -111.024414 314 6263ft 114kts
29-Oct-23 13:41 32.210601 -111.050929 314 7206ft 116kts
29-Oct-23 13:42 32.239319 -111.050164 33 8121ft 122kts
29-Oct-23 13:43 32.265870 -111.024805 39 9058ft 123kts
29-Oct-23 13:44 32.293275 -110.997006 38 9772ft 141kts
29-Oct-23 13:45 32.305273 -110.950198 85 10306ft 162kts
29-Oct-23 13:46 32.309241 -110.895422 86 10819ft 171kts
29-Oct-23 13:47 32.313368 -110.836724 86 11005ft 189kts
29-Oct-23 13:48 32.317793 -110.773678 86 11000ft 194kts
29-Oct-23 13:49 32.322238 -110.709576 86 11002ft 196kts
29-Oct-23 13:50 32.326685 -110.645447 86 11002ft 196kts
29-Oct-23 13:51 32.330609 -110.581008 92 11004ft 196kts
29-Oct-23 13:52 32.328150 -110.516648 94 11004ft 196kts
29-Oct-23 13:53 32.325419 -110.452046 94 11003ft 196kts
29-Oct-23 13:54 32.322658 -110.387585 94 11001ft 197kts
29-Oct-23 13:55 32.319856 -110.322674 95 10998ft 197kts
29-Oct-23 13:56 32.317020 -110.258297 95 10997ft 196kts
29-Oct-23 13:57 32.314165 -110.193555 95 10999ft 197kts
29-Oct-23 13:58 32.311269 -110.128991 95 10999ft 196kts
29-Oct-23 13:59 32.308364 -110.064570 95 11003ft 196kts
29-Oct-23 14:00 32.305373 -109.999820 95 11005ft 197kts
29-Oct-23 14:01 32.302351 -109.934841 96 11011ft 197kts
29-Oct-23 14:02 32.299323 -109.869915 96 11011ft 198kts
29-Oct-23 14:03 32.296208 -109.804832 95 11009ft 199kts
29-Oct-23 14:04 32.293123 -109.739589 96 11010ft 198kts
29-Oct-23 14:05 32.289925 -109.674243 96 11009ft 199kts
29-Oct-23 14:06 32.286737 -109.609130 95 11011ft 199kts
29-Oct-23 14:07 32.283543 -109.544071 96 11011ft 197kts
29-Oct-23 14:08 32.280257 -109.479207 95 11009ft 198kts
29-Oct-23 14:09 32.277006 -109.414249 95 11012ft 198kts
29-Oct-23 14:10 32.273661 -109.349091 96 11007ft 199kts
29-Oct-23 14:11 32.270330 -109.283838 96 11005ft 197kts
29-Oct-23 14:12 32.269724 -109.218813 92 11007ft 198kts
29-Oct-23 14:13 32.270336 -109.153599 92 11010ft 197kts
29-Oct-23 14:14 32.270942 -109.088770 92 11017ft 198kts
29-Oct-23 14:15 32.271511 -109.023651 92 11023ft 198kts
29-Oct-23 14:16 32.272053 -108.958162 92 11029ft 199kts
29-Oct-23 14:17 32.272549 -108.892779 92 11026ft 199kts
29-Oct-23 14:18 32.273029 -108.827112 92 11028ft 200kts
29-Oct-23 14:19 32.273472 -108.761145 92 11028ft 201kts
29-Oct-23 14:20 32.273874 -108.695042 92 11027ft 201kts
29-Oct-23 14:21 32.274270 -108.628965 92 11026ft 202kts
29-Oct-23 14:22 32.274606 -108.562803 92 11031ft 202kts
29-Oct-23 14:23 32.274912 -108.496331 92 11031ft 202kts
29-Oct-23 14:24 32.275179 -108.429748 93 11029ft 203kts
29-Oct-23 14:25 32.275415 -108.363014 93 11030ft 203kts
29-Oct-23 14:26 32.275617 -108.296334 93 11025ft 202kts
29-Oct-23 14:28 32.275776 -108.229883 93 11020ft 203kts
29-Oct-23 14:29 32.275877 -108.163030 93 11013ft 203kts
29-Oct-23 14:30 32.275983 -108.096222 93 11013ft 203kts
29-Oct-23 14:31 32.276031 -108.029294 93 10999ft 203kts
29-Oct-23 14:32 32.276063 -107.962475 93 10999ft 203kts
29-Oct-23 14:33 32.276037 -107.895677 93 11002ft 203kts
29-Oct-23 14:34 32.275981 -107.828954 93 11000ft 203kts
29-Oct-23 14:35 32.275901 -107.762127 93 10999ft 202kts
29-Oct-23 14:36 32.275790 -107.695663 94 10999ft 203kts
29-Oct-23 14:37 32.275608 -107.628974 93 11000ft 203kts
29-Oct-23 14:38 32.265753 -107.564589 110 11003ft 198kts
29-Oct-23 14:39 32.250925 -107.501750 110 11002ft 198kts
29-Oct-23 14:40 32.236107 -107.439344 111 11002ft 198kts
29-Oct-23 14:41 32.221147 -107.376758 111 11002ft 197kts
29-Oct-23 14:42 32.206243 -107.314335 111 10996ft 197kts
29-Oct-23 14:43 32.191376 -107.252443 111 10997ft 196kts
29-Oct-23 14:44 32.176730 -107.191433 111 10996ft 195kts
29-Oct-23 14:45 32.161931 -107.129904 111 11000ft 195kts
29-Oct-23 14:46 32.147077 -107.068327 111 10998ft 194kts
29-Oct-23 14:47 32.132220 -107.007021 111 10998ft 194kts
29-Oct-23 14:48 32.117323 -106.945610 111 10994ft 194kts
29-Oct-23 14:49 32.102428 -106.884369 111 10992ft 194kts
29-Oct-23 14:49 32.090010 -106.833434 111 10990ft 194kts
29-Oct-23 14:50 32.075076 -106.772263 111 10992ft 193kts
29-Oct-23 14:52 32.057664 -106.701167 111 10988ft 194kts
29-Oct-23 14:53 32.042727 -106.640331 111 10992ft 193kts
29-Oct-23 14:54 32.027729 -106.579326 111 10991ft 193kts
29-Oct-23 14:54 32.015261 -106.528712 112 10990ft 193kts
29-Oct-23 14:55 32.000262 -106.467984 111 10991ft 193kts
29-Oct-23 14:56 31.985195 -106.407078 111 10991ft 193kts
29-Oct-23 14:58 31.967636 -106.336297 112 10989ft 193kts
29-Oct-23 14:58 31.955136 -106.285885 112 10988ft 192kts
29-Oct-23 14:59 31.951027 -106.222174 96 10987ft 196kts
29-Oct-23 15:00 31.949965 -106.158133 96 11011ft 195kts
29-Oct-23 15:01 31.948955 -106.094136 95 11014ft 196kts
29-Oct-23 15:02 31.947910 -106.029982 96 11028ft 195kts
29-Oct-23 15:03 31.946811 -105.966138 95 11048ft 195kts
29-Oct-23 15:04 31.945701 -105.902448 96 11067ft 194kts
29-Oct-23 15:05 31.965101 -105.846307 41 11086ft 199kts
29-Oct-23 15:06 32.007417 -105.803851 38 11090ft 200kts
29-Oct-23 15:07 32.050522 -105.762202 37 11090ft 200kts
29-Oct-23 15:08 32.093607 -105.720640 37 11109ft 200kts
29-Oct-23 15:09 32.136643 -105.679076 37 11109ft 200kts
29-Oct-23 15:10 32.179883 -105.637443 37 11110ft 200kts
29-Oct-23 15:11 32.223384 -105.596234 37 11110ft 200kts
29-Oct-23 15:12 32.266876 -105.555017 37 11110ft 201kts
29-Oct-23 15:13 32.310442 -105.513667 37 11111ft 200kts
29-Oct-23 15:14 32.353659 -105.472583 37 11146ft 198kts
29-Oct-23 15:15 32.396606 -105.431727 37 11204ft 198kts
29-Oct-23 15:16 32.439623 -105.390760 37 11030ft 210kts
29-Oct-23 15:17 32.484140 -105.348279 37 10996ft 199kts
29-Oct-23 15:18 32.527677 -105.306797 35 10958ft 205kts
29-Oct-23 15:19 32.571922 -105.269499 35 11021ft 190kts
29-Oct-23 15:20 32.615563 -105.232905 35 10978ft 194kts
29-Oct-23 15:21 32.659244 -105.196141 34 10996ft 192kts
29-Oct-23 15:22 32.702372 -105.159934 33 11019ft 192kts
29-Oct-23 15:23 32.745735 -105.123350 35 10989ft 191kts
29-Oct-23 15:24 32.790201 -105.085898 34 10490ft 199kts
29-Oct-23 15:25 32.833966 -105.049023 36 10043ft 188kts
29-Oct-23 15:26 32.875983 -105.013584 35 9560ft 182kts
29-Oct-23 15:27 32.916438 -104.979450 36 9048ft 174kts
29-Oct-23 15:28 32.955048 -104.946801 36 8543ft 167kts
29-Oct-23 15:29 32.992573 -104.915032 36 8041ft 164kts
29-Oct-23 15:30 33.029456 -104.883784 36 7583ft 164kts
29-Oct-23 15:31 33.065948 -104.852677 36 7318ft 159kts
29-Oct-23 15:32 33.099202 -104.819356 59 7169ft 158kts
29-Oct-23 15:33 33.120304 -104.772242 61 6689ft 162kts
29-Oct-23 15:34 33.141198 -104.724473 63 6267ft 160kts
29-Oct-23 15:35 33.164384 -104.682280 46 6092ft 155kts
29-Oct-23 15:36 33.193923 -104.646875 45 5679ft 131kts
29-Oct-23 15:37 33.218489 -104.617649 45 5396ft 120kts
29-Oct-23 15:38 33.239499 -104.592467 43 5113ft 94kts
29-Oct-23 15:39 33.256968 -104.571711 43 4516ft 82kts
29-Oct-23 15:40 33.272903 -104.552676 42 4079ft 80kts
29-Oct-23 15:41 33.288411 -104.534199 40 3671ft 68kts
29-Oct-23 15:42 33.297174 -104.523728 35 3649ft 15kts
29-Oct-23 15:43 33.298702 -104.524600 317 3649ft 0kts
29-Oct-23 15:44 33.298702 -104.524600 317 3649ft 0kts
29-Oct-23 15:45 33.298702 -104.524600 317 3649ft 0kts

Navigation Log

Ident Type
Flight plan parsing failed, navigation log unavailable